aviador You're here:

KBIX Decoded Metar

BILOXI in MS, USA
Report Time2017-11-23 10:56:00
UTC Time2017-11-23 11:18:03
Flight Rules vfr VFR
Wind360° at 10 kt
W.Decomp.*RWY 03: 8.6 kt HW 5.2 kt LCW
Visibility9999 m
Phenomena:N/A
Clouds:N/A
Expected CloudBase > 2,400 ft AGL from Temp-Dew spread
CeilingNone
Temp06°C (ISA -9)
Dew Point00°C (66% RH)
AAT0.4°C
QNH1019 hPa
Density Alt-1,165 ft
Elevation33 ft
Report Wrong Elevation
Raw Report
KBIX 231056Z AUTO 36010KT 10SM CLR 06/00 A3008 RMK AO2 SLP189
T00551003 CHINO RWY21 $=

Extra information for KBIX:More info

Metar Taf Metar & Taf Last 4 Metars F.Rules Stats Wind Profile Meteogram Temp Stats Airport Information Weather charts Add Link Nearby VenuesMetar ALERT Operation Metar Decoded Social comments

AIRNAV info for KBIX